sensor_id;sensor_type;location;lat;lon;timestamp;P1;durP1;ratioP1;P2;durP2;ratioP2
12906;SDS011;6521;50.498;8.474;2023-07-31T00:00:51;7.28;;;2.13;;
12906;SDS011;6521;50.498;8.474;2023-07-31T00:03:22;8.60;;;2.63;;
12906;SDS011;6521;50.498;8.474;2023-07-31T00:05:52;4.28;;;2.08;;
12906;SDS011;6521;50.498;8.474;2023-07-31T00:08:23;4.00;;;2.13;;
12906;SDS011;6521;50.498;8.474;2023-07-31T00:10:54;4.78;;;2.00;;
12906;SDS011;6521;50.498;8.474;2023-07-31T00:13:24;4.93;;;2.40;;
12906;SDS011;6521;50.498;8.474;2023-07-31T00:15:54;10.00;;;2.38;;
12906;SDS011;6521;50.498;8.474;2023-07-31T00:18:27;6.55;;;2.65;;
12906;SDS011;6521;50.498;8.474;2023-07-31T00:20:58;6.55;;;2.38;;
12906;SDS011;6521;50.498;8.474;2023-07-31T00:23:28;3.70;;;1.80;;
12906;SDS011;6521;50.498;8.474;2023-07-31T00:26:00;3.55;;;1.98;;
12906;SDS011;6521;50.498;8.474;2023-07-31T00:28:30;6.38;;;2.30;;
12906;SDS011;6521;50.498;8.474;2023-07-31T00:31:01;6.28;;;2.20;;
12906;SDS011;6521;50.498;8.474;2023-07-31T00:33:34;4.35;;;2.08;;
12906;SDS011;6521;50.498;8.474;2023-07-31T00:36:07;6.75;;;2.35;;
12906;SDS011;6521;50.498;8.474;2023-07-31T00:38:37;4.35;;;2.22;;
12906;SDS011;6521;50.498;8.474;2023-07-31T00:41:08;4.15;;;2.08;;
12906;SDS011;6521;50.498;8.474;2023-07-31T00:43:38;3.22;;;1.90;;
12906;SDS011;6521;50.498;8.474;2023-07-31T00:46:08;10.38;;;2.50;;
12906;SDS011;6521;50.498;8.474;2023-07-31T00:48:39;5.13;;;2.50;;
12906;SDS011;6521;50.498;8.474;2023-07-31T00:51:11;4.60;;;2.22;;
12906;SDS011;6521;50.498;8.474;2023-07-31T00:53:42;5.05;;;2.47;;
12906;SDS011;6521;50.498;8.474;2023-07-31T00:56:14;4.00;;;1.92;;
12906;SDS011;6521;50.498;8.474;2023-07-31T00:58:46;6.25;;;2.60;;
12906;SDS011;6521;50.498;8.474;2023-07-31T01:01:16;5.30;;;2.40;;
12906;SDS011;6521;50.498;8.474;2023-07-31T01:03:46;10.32;;;2.63;;
12906;SDS011;6521;50.498;8.474;2023-07-31T01:06:19;6.45;;;2.85;;
12906;SDS011;6521;50.498;8.474;2023-07-31T01:09:15;4.00;;;2.47;;
12906;SDS011;6521;50.498;8.474;2023-07-31T01:11:50;8.73;;;2.90;;
12906;SDS011;6521;50.498;8.474;2023-07-31T01:14:23;6.10;;;2.78;;
12906;SDS011;6521;50.498;8.474;2023-07-31T01:16:54;5.68;;;2.67;;
12906;SDS011;6521;50.498;8.474;2023-07-31T01:19:25;5.95;;;2.58;;
12906;SDS011;6521;50.498;8.474;2023-07-31T01:22:02;3.30;;;2.08;;
12906;SDS011;6521;50.498;8.474;2023-07-31T01:30:50;4.18;;;2.35;;
12906;SDS011;6521;50.498;8.474;2023-07-31T01:33:21;5.82;;;2.53;;
12906;SDS011;6521;50.498;8.474;2023-07-31T01:35:54;5.72;;;2.55;;
12906;SDS011;6521;50.498;8.474;2023-07-31T01:38:25;5.25;;;2.38;;
12906;SDS011;6521;50.498;8.474;2023-07-31T01:40:55;5.35;;;2.30;;
12906;SDS011;6521;50.498;8.474;2023-07-31T01:43:25;6.03;;;2.50;;
12906;SDS011;6521;50.498;8.474;2023-07-31T01:45:56;5.00;;;2.33;;
12906;SDS011;6521;50.498;8.474;2023-07-31T01:48:28;6.30;;;2.53;;
12906;SDS011;6521;50.498;8.474;2023-07-31T01:51:00;4.68;;;2.33;;
12906;SDS011;6521;50.498;8.474;2023-07-31T01:53:31;5.43;;;2.35;;
12906;SDS011;6521;50.498;8.474;2023-07-31T01:56:02;4.22;;;2.50;;
12906;SDS011;6521;50.498;8.474;2023-07-31T01:58:34;5.07;;;2.40;;
12906;SDS011;6521;50.498;8.474;2023-07-31T02:01:07;5.78;;;2.47;;
12906;SDS011;6521;50.498;8.474;2023-07-31T02:03:39;5.65;;;2.60;;
12906;SDS011;6521;50.498;8.474;2023-07-31T02:06:09;5.75;;;2.55;;
12906;SDS011;6521;50.498;8.474;2023-07-31T02:08:40;6.72;;;2.75;;
12906;SDS011;6521;50.498;8.474;2023-07-31T02:11:10;2.75;;;2.13;;
12906;SDS011;6521;50.498;8.474;2023-07-31T02:13:41;6.18;;;2.75;;
12906;SDS011;6521;50.498;8.474;2023-07-31T02:16:11;7.15;;;2.95;;
12906;SDS011;6521;50.498;8.474;2023-07-31T02:18:42;4.72;;;2.55;;
12906;SDS011;6521;50.498;8.474;2023-07-31T02:21:14;4.85;;;2.28;;
12906;SDS011;6521;50.498;8.474;2023-07-31T02:23:44;7.75;;;2.83;;
12906;SDS011;6521;50.498;8.474;2023-07-31T02:26:15;3.30;;;2.45;;
12906;SDS011;6521;50.498;8.474;2023-07-31T02:28:46;6.90;;;2.78;;
12906;SDS011;6521;50.498;8.474;2023-07-31T02:31:16;8.48;;;2.88;;
12906;SDS011;6521;50.498;8.474;2023-07-31T02:33:47;4.70;;;2.53;;
12906;SDS011;6521;50.498;8.474;2023-07-31T02:36:17;3.67;;;2.15;;
12906;SDS011;6521;50.498;8.474;2023-07-31T02:38:48;4.88;;;2.67;;
12906;SDS011;6521;50.498;8.474;2023-07-31T02:41:18;3.90;;;2.60;;
12906;SDS011;6521;50.498;8.474;2023-07-31T02:43:48;6.38;;;2.90;;
12906;SDS011;6521;50.498;8.474;2023-07-31T02:46:20;3.75;;;2.78;;
12906;SDS011;6521;50.498;8.474;2023-07-31T02:48:55;4.25;;;2.70;;
12906;SDS011;6521;50.498;8.474;2023-07-31T02:51:25;4.70;;;2.30;;
12906;SDS011;6521;50.498;8.474;2023-07-31T02:53:56;6.85;;;2.92;;
12906;SDS011;6521;50.498;8.474;2023-07-31T02:56:26;8.05;;;2.80;;
12906;SDS011;6521;50.498;8.474;2023-07-31T02:58:56;6.55;;;2.75;;
12906;SDS011;6521;50.498;8.474;2023-07-31T03:01:27;5.10;;;2.63;;
12906;SDS011;6521;50.498;8.474;2023-07-31T03:03:57;6.07;;;2.58;;
12906;SDS011;6521;50.498;8.474;2023-07-31T03:06:28;4.90;;;2.78;;
12906;SDS011;6521;50.498;8.474;2023-07-31T03:08:58;4.05;;;2.70;;
12906;SDS011;6521;50.498;8.474;2023-07-31T03:11:28;6.80;;;3.00;;
12906;SDS011;6521;50.498;8.474;2023-07-31T03:14:00;3.70;;;2.97;;
12906;SDS011;6521;50.498;8.474;2023-07-31T03:16:30;6.28;;;3.10;;
12906;SDS011;6521;50.498;8.474;2023-07-31T03:19:01;8.77;;;3.10;;
12906;SDS011;6521;50.498;8.474;2023-07-31T03:21:32;6.45;;;2.80;;
12906;SDS011;6521;50.498;8.474;2023-07-31T03:24:02;4.50;;;2.65;;
12906;SDS011;6521;50.498;8.474;2023-07-31T03:26:33;5.03;;;3.00;;
12906;SDS011;6521;50.498;8.474;2023-07-31T03:29:07;4.20;;;2.45;;
12906;SDS011;6521;50.498;8.474;2023-07-31T03:31:38;5.22;;;2.78;;
12906;SDS011;6521;50.498;8.474;2023-07-31T03:34:08;4.35;;;2.47;;
12906;SDS011;6521;50.498;8.474;2023-07-31T03:36:39;4.10;;;2.88;;
12906;SDS011;6521;50.498;8.474;2023-07-31T03:39:10;4.53;;;2.50;;
12906;SDS011;6521;50.498;8.474;2023-07-31T03:41:40;5.05;;;2.72;;
12906;SDS011;6521;50.498;8.474;2023-07-31T03:44:11;3.90;;;2.83;;
12906;SDS011;6521;50.498;8.474;2023-07-31T03:46:41;4.38;;;2.78;;
12906;SDS011;6521;50.498;8.474;2023-07-31T03:49:12;6.82;;;3.17;;
12906;SDS011;6521;50.498;8.474;2023-07-31T03:51:42;6.35;;;3.40;;
12906;SDS011;6521;50.498;8.474;2023-07-31T03:54:12;4.10;;;2.70;;
12906;SDS011;6521;50.498;8.474;2023-07-31T03:56:44;5.25;;;2.92;;
12906;SDS011;6521;50.498;8.474;2023-07-31T03:59:14;7.18;;;3.15;;
12906;SDS011;6521;50.498;8.474;2023-07-31T04:01:45;5.30;;;2.97;;
12906;SDS011;6521;50.498;8.474;2023-07-31T04:04:16;5.22;;;2.80;;
12906;SDS011;6521;50.498;8.474;2023-07-31T04:06:46;9.05;;;3.53;;
12906;SDS011;6521;50.498;8.474;2023-07-31T04:09:17;4.32;;;2.60;;
12906;SDS011;6521;50.498;8.474;2023-07-31T04:11:48;6.13;;;2.95;;
12906;SDS011;6521;50.498;8.474;2023-07-31T04:14:18;7.78;;;2.33;;
12906;SDS011;6521;50.498;8.474;2023-07-31T04:16:49;5.05;;;3.00;;
12906;SDS011;6521;50.498;8.474;2023-07-31T04:19:22;4.90;;;2.83;;
12906;SDS011;6521;50.498;8.474;2023-07-31T04:21:54;6.22;;;2.67;;
12906;SDS011;6521;50.498;8.474;2023-07-31T04:24:24;5.03;;;3.20;;
12906;SDS011;6521;50.498;8.474;2023-07-31T04:26:55;7.47;;;2.67;;
12906;SDS011;6521;50.498;8.474;2023-07-31T04:29:26;7.50;;;2.67;;
12906;SDS011;6521;50.498;8.474;2023-07-31T04:31:56;4.63;;;3.03;;
12906;SDS011;6521;50.498;8.474;2023-07-31T04:34:27;5.82;;;2.58;;
12906;SDS011;6521;50.498;8.474;2023-07-31T04:36:58;6.88;;;2.72;;
12906;SDS011;6521;50.498;8.474;2023-07-31T04:39:28;5.10;;;2.70;;
12906;SDS011;6521;50.498;8.474;2023-07-31T04:41:59;7.40;;;2.78;;
12906;SDS011;6521;50.498;8.474;2023-07-31T04:44:29;4.88;;;2.78;;
12906;SDS011;6521;50.498;8.474;2023-07-31T04:47:00;7.53;;;3.13;;
12906;SDS011;6521;50.498;8.474;2023-07-31T04:49:32;4.43;;;2.60;;
12906;SDS011;6521;50.498;8.474;2023-07-31T04:52:06;7.43;;;2.90;;
12906;SDS011;6521;50.498;8.474;2023-07-31T04:54:37;6.35;;;2.80;;
12906;SDS011;6521;50.498;8.474;2023-07-31T04:57:07;10.20;;;2.83;;
12906;SDS011;6521;50.498;8.474;2023-07-31T04:59:38;5.15;;;2.90;;
12906;SDS011;6521;50.498;8.474;2023-07-31T05:02:08;4.88;;;2.75;;
12906;SDS011;6521;50.498;8.474;2023-07-31T05:04:42;4.60;;;2.60;;
12906;SDS011;6521;50.498;8.474;2023-07-31T05:07:12;6.15;;;2.45;;
12906;SDS011;6521;50.498;8.474;2023-07-31T05:09:42;4.65;;;2.78;;
12906;SDS011;6521;50.498;8.474;2023-07-31T05:12:13;5.00;;;2.85;;
12906;SDS011;6521;50.498;8.474;2023-07-31T05:14:43;5.03;;;2.38;;
12906;SDS011;6521;50.498;8.474;2023-07-31T05:17:14;8.23;;;3.17;;
12906;SDS011;6521;50.498;8.474;2023-07-31T05:19:44;4.57;;;2.53;;
12906;SDS011;6521;50.498;8.474;2023-07-31T05:22:15;5.60;;;2.72;;
12906;SDS011;6521;50.498;8.474;2023-07-31T05:24:45;4.80;;;2.58;;
12906;SDS011;6521;50.498;8.474;2023-07-31T05:27:17;3.58;;;2.30;;
12906;SDS011;6521;50.498;8.474;2023-07-31T05:29:48;5.57;;;2.55;;
12906;SDS011;6521;50.498;8.474;2023-07-31T05:32:19;5.30;;;3.10;;
12906;SDS011;6521;50.498;8.474;2023-07-31T05:34:51;4.25;;;2.72;;
12906;SDS011;6521;50.498;8.474;2023-07-31T05:37:24;9.50;;;3.20;;
12906;SDS011;6521;50.498;8.474;2023-07-31T05:39:54;4.97;;;2.70;;
12906;SDS011;6521;50.498;8.474;2023-07-31T05:42:26;5.78;;;2.45;;
12906;SDS011;6521;50.498;8.474;2023-07-31T05:44:57;3.17;;;2.38;;
12906;SDS011;6521;50.498;8.474;2023-07-31T05:47:27;3.72;;;2.40;;
12906;SDS011;6521;50.498;8.474;2023-07-31T05:49:57;4.95;;;2.90;;
12906;SDS011;6521;50.498;8.474;2023-07-31T05:52:28;5.45;;;2.60;;
12906;SDS011;6521;50.498;8.474;2023-07-31T05:54:59;6.85;;;2.88;;
12906;SDS011;6521;50.498;8.474;2023-07-31T05:57:29;5.13;;;2.70;;
12906;SDS011;6521;50.498;8.474;2023-07-31T05:59:59;4.63;;;2.50;;
12906;SDS011;6521;50.498;8.474;2023-07-31T06:02:30;8.00;;;2.70;;
12906;SDS011;6521;50.498;8.474;2023-07-31T06:05:03;5.88;;;2.60;;
12906;SDS011;6521;50.498;8.474;2023-07-31T06:07:36;6.97;;;2.50;;
12906;SDS011;6521;50.498;8.474;2023-07-31T06:10:07;3.75;;;2.60;;
12906;SDS011;6521;50.498;8.474;2023-07-31T06:12:38;5.55;;;2.33;;
12906;SDS011;6521;50.498;8.474;2023-07-31T06:15:09;3.72;;;2.75;;
12906;SDS011;6521;50.498;8.474;2023-07-31T06:17:40;4.05;;;2.88;;
12906;SDS011;6521;50.498;8.474;2023-07-31T06:20:11;7.97;;;2.35;;
12906;SDS011;6521;50.498;8.474;2023-07-31T06:22:42;4.65;;;2.42;;
12906;SDS011;6521;50.498;8.474;2023-07-31T06:25:12;5.45;;;3.03;;
12906;SDS011;6521;50.498;8.474;2023-07-31T06:27:43;4.35;;;2.60;;
12906;SDS011;6521;50.498;8.474;2023-07-31T06:30:13;6.95;;;3.28;;
12906;SDS011;6521;50.498;8.474;2023-07-31T06:32:44;5.90;;;2.78;;
12906;SDS011;6521;50.498;8.474;2023-07-31T06:35:16;8.93;;;3.50;;
12906;SDS011;6521;50.498;8.474;2023-07-31T06:37:47;5.47;;;2.78;;
12906;SDS011;6521;50.498;8.474;2023-07-31T06:40:18;5.50;;;2.97;;
12906;SDS011;6521;50.498;8.474;2023-07-31T06:42:49;6.35;;;2.67;;
12906;SDS011;6521;50.498;8.474;2023-07-31T06:45:20;6.18;;;3.42;;
12906;SDS011;6521;50.498;8.474;2023-07-31T06:47:54;6.68;;;3.15;;
12906;SDS011;6521;50.498;8.474;2023-07-31T06:50:25;5.75;;;2.63;;
12906;SDS011;6521;50.498;8.474;2023-07-31T06:52:55;11.50;;;3.72;;
12906;SDS011;6521;50.498;8.474;2023-07-31T06:55:26;4.22;;;3.13;;
12906;SDS011;6521;50.498;8.474;2023-07-31T06:57:57;5.38;;;2.90;;
12906;SDS011;6521;50.498;8.474;2023-07-31T07:00:27;6.00;;;3.10;;
12906;SDS011;6521;50.498;8.474;2023-07-31T07:02:58;7.80;;;2.90;;
12906;SDS011;6521;50.498;8.474;2023-07-31T07:05:29;6.75;;;2.78;;
12906;SDS011;6521;50.498;8.474;2023-07-31T07:07:59;4.20;;;2.88;;
12906;SDS011;6521;50.498;8.474;2023-07-31T07:10:30;6.72;;;3.33;;
12906;SDS011;6521;50.498;8.474;2023-07-31T07:13:01;4.32;;;2.85;;
12906;SDS011;6521;50.498;8.474;2023-07-31T07:15:32;7.10;;;3.10;;
12906;SDS011;6521;50.498;8.474;2023-07-31T07:18:02;8.27;;;3.35;;
12906;SDS011;6521;50.498;8.474;2023-07-31T07:20:33;7.57;;;3.90;;
12906;SDS011;6521;50.498;8.474;2023-07-31T07:23:04;5.25;;;3.20;;
12906;SDS011;6521;50.498;8.474;2023-07-31T07:25:37;7.25;;;3.15;;
12906;SDS011;6521;50.498;8.474;2023-07-31T07:28:07;6.85;;;3.30;;
12906;SDS011;6521;50.498;8.474;2023-07-31T07:30:39;7.53;;;3.30;;
12906;SDS011;6521;50.498;8.474;2023-07-31T07:33:10;5.22;;;3.40;;
12906;SDS011;6521;50.498;8.474;2023-07-31T07:35:40;4.80;;;2.83;;
12906;SDS011;6521;50.498;8.474;2023-07-31T07:38:11;10.43;;;3.97;;
12906;SDS011;6521;50.498;8.474;2023-07-31T07:40:42;11.35;;;3.95;;
12906;SDS011;6521;50.498;8.474;2023-07-31T07:43:14;9.77;;;3.30;;
12906;SDS011;6521;50.498;8.474;2023-07-31T07:45:44;7.88;;;3.65;;
12906;SDS011;6521;50.498;8.474;2023-07-31T07:48:26;8.45;;;3.85;;
12906;SDS011;6521;50.498;8.474;2023-07-31T07:50:57;7.63;;;3.33;;
12906;SDS011;6521;50.498;8.474;2023-07-31T07:53:27;8.07;;;3.22;;
12906;SDS011;6521;50.498;8.474;2023-07-31T07:55:57;8.38;;;4.15;;
12906;SDS011;6521;50.498;8.474;2023-07-31T07:58:28;6.95;;;3.35;;
12906;SDS011;6521;50.498;8.474;2023-07-31T08:00:58;5.65;;;3.33;;
12906;SDS011;6521;50.498;8.474;2023-07-31T08:03:29;7.05;;;3.60;;
12906;SDS011;6521;50.498;8.474;2023-07-31T08:05:59;6.70;;;3.75;;
12906;SDS011;6521;50.498;8.474;2023-07-31T08:08:30;9.88;;;3.45;;
12906;SDS011;6521;50.498;8.474;2023-07-31T08:11:01;6.15;;;3.20;;
12906;SDS011;6521;50.498;8.474;2023-07-31T08:13:34;9.30;;;3.30;;
12906;SDS011;6521;50.498;8.474;2023-07-31T08:16:07;6.72;;;3.20;;
12906;SDS011;6521;50.498;8.474;2023-07-31T08:18:37;6.72;;;3.45;;
12906;SDS011;6521;50.498;8.474;2023-07-31T08:21:08;8.20;;;3.13;;
12906;SDS011;6521;50.498;8.474;2023-07-31T08:23:38;7.60;;;3.67;;
12906;SDS011;6521;50.498;8.474;2023-07-31T08:26:14;7.18;;;3.28;;
12906;SDS011;6521;50.498;8.474;2023-07-31T08:28:45;4.43;;;3.20;;
12906;SDS011;6521;50.498;8.474;2023-07-31T08:31:16;6.40;;;3.00;;
12906;SDS011;6521;50.498;8.474;2023-07-31T08:33:46;8.88;;;3.03;;
12906;SDS011;6521;50.498;8.474;2023-07-31T08:36:16;6.00;;;3.35;;
12906;SDS011;6521;50.498;8.474;2023-07-31T08:38:50;7.00;;;3.33;;
12906;SDS011;6521;50.498;8.474;2023-07-31T08:41:21;8.65;;;3.53;;
12906;SDS011;6521;50.498;8.474;2023-07-31T08:43:52;6.60;;;3.63;;
12906;SDS011;6521;50.498;8.474;2023-07-31T08:46:25;7.25;;;3.53;;
12906;SDS011;6521;50.498;8.474;2023-07-31T08:48:55;8.65;;;3.80;;
12906;SDS011;6521;50.498;8.474;2023-07-31T08:51:28;4.55;;;3.10;;
12906;SDS011;6521;50.498;8.474;2023-07-31T08:54:00;4.80;;;3.00;;
12906;SDS011;6521;50.498;8.474;2023-07-31T08:56:34;6.78;;;3.10;;
12906;SDS011;6521;50.498;8.474;2023-07-31T08:59:07;6.43;;;3.30;;
12906;SDS011;6521;50.498;8.474;2023-07-31T09:01:40;5.53;;;3.63;;
12906;SDS011;6521;50.498;8.474;2023-07-31T09:04:14;8.90;;;3.50;;
12906;SDS011;6521;50.498;8.474;2023-07-31T09:06:46;6.82;;;2.80;;
12906;SDS011;6521;50.498;8.474;2023-07-31T09:09:19;7.05;;;3.70;;
12906;SDS011;6521;50.498;8.474;2023-07-31T09:11:51;8.32;;;3.55;;
12906;SDS011;6521;50.498;8.474;2023-07-31T09:14:22;6.78;;;3.50;;
12906;SDS011;6521;50.498;8.474;2023-07-31T09:16:55;6.28;;;3.25;;
12906;SDS011;6521;50.498;8.474;2023-07-31T09:19:29;6.80;;;4.18;;
12906;SDS011;6521;50.498;8.474;2023-07-31T09:22:06;7.82;;;3.50;;
12906;SDS011;6521;50.498;8.474;2023-07-31T09:24:37;6.90;;;3.28;;
12906;SDS011;6521;50.498;8.474;2023-07-31T09:27:07;7.47;;;3.55;;
12906;SDS011;6521;50.498;8.474;2023-07-31T09:29:39;7.65;;;3.47;;
12906;SDS011;6521;50.498;8.474;2023-07-31T09:32:15;8.70;;;3.83;;
12906;SDS011;6521;50.498;8.474;2023-07-31T09:34:47;6.75;;;3.53;;
12906;SDS011;6521;50.498;8.474;2023-07-31T09:37:17;7.97;;;4.47;;
12906;SDS011;6521;50.498;8.474;2023-07-31T09:39:49;8.80;;;3.80;;
12906;SDS011;6521;50.498;8.474;2023-07-31T09:42:25;5.75;;;3.45;;
12906;SDS011;6521;50.498;8.474;2023-07-31T09:45:09;9.23;;;4.22;;
12906;SDS011;6521;50.498;8.474;2023-07-31T09:47:45;6.07;;;3.63;;
12906;SDS011;6521;50.498;8.474;2023-07-31T09:50:17;8.25;;;3.65;;
12906;SDS011;6521;50.498;8.474;2023-07-31T09:52:50;6.57;;;3.70;;
12906;SDS011;6521;50.498;8.474;2023-07-31T09:55:23;6.50;;;3.55;;
12906;SDS011;6521;50.498;8.474;2023-07-31T09:57:55;7.72;;;4.10;;
12906;SDS011;6521;50.498;8.474;2023-07-31T10:00:27;9.88;;;4.20;;
12906;SDS011;6521;50.498;8.474;2023-07-31T10:03:00;8.85;;;4.07;;
12906;SDS011;6521;50.498;8.474;2023-07-31T10:05:36;9.00;;;3.85;;
12906;SDS011;6521;50.498;8.474;2023-07-31T10:08:16;6.85;;;4.00;;
12906;SDS011;6521;50.498;8.474;2023-07-31T10:10:50;11.27;;;3.95;;
12906;SDS011;6521;50.498;8.474;2023-07-31T10:13:20;8.63;;;4.00;;
12906;SDS011;6521;50.498;8.474;2023-07-31T10:15:52;7.47;;;3.67;;
12906;SDS011;6521;50.498;8.474;2023-07-31T10:18:24;7.55;;;3.83;;
12906;SDS011;6521;50.498;8.474;2023-07-31T10:20:55;5.22;;;3.60;;
12906;SDS011;6521;50.498;8.474;2023-07-31T10:23:26;8.63;;;4.28;;
12906;SDS011;6521;50.498;8.474;2023-07-31T10:25:57;10.65;;;4.25;;
12906;SDS011;6521;50.498;8.474;2023-07-31T10:28:29;8.02;;;4.03;;
12906;SDS011;6521;50.498;8.474;2023-07-31T10:31:01;6.95;;;3.72;;
12906;SDS011;6521;50.498;8.474;2023-07-31T10:33:33;10.10;;;4.03;;
12906;SDS011;6521;50.498;8.474;2023-07-31T10:36:14;11.52;;;4.40;;
12906;SDS011;6521;50.498;8.474;2023-07-31T10:38:51;5.22;;;3.83;;
12906;SDS011;6521;50.498;8.474;2023-07-31T10:41:28;11.63;;;3.63;;
12906;SDS011;6521;50.498;8.474;2023-07-31T10:44:01;9.55;;;4.07;;
12906;SDS011;6521;50.498;8.474;2023-07-31T10:46:32;8.30;;;3.80;;
12906;SDS011;6521;50.498;8.474;2023-07-31T10:49:04;11.93;;;3.85;;
12906;SDS011;6521;50.498;8.474;2023-07-31T10:51:35;7.97;;;3.50;;
12906;SDS011;6521;50.498;8.474;2023-07-31T10:54:10;8.02;;;3.55;;
12906;SDS011;6521;50.498;8.474;2023-07-31T10:56:46;11.68;;;3.08;;
12906;SDS011;6521;50.498;8.474;2023-07-31T10:59:18;7.95;;;3.78;;
12906;SDS011;6521;50.498;8.474;2023-07-31T11:04:26;7.38;;;3.80;;
12906;SDS011;6521;50.498;8.474;2023-07-31T11:06:58;10.10;;;4.38;;
12906;SDS011;6521;50.498;8.474;2023-07-31T11:09:30;8.02;;;3.72;;
12906;SDS011;6521;50.498;8.474;2023-07-31T11:12:02;7.47;;;3.53;;
12906;SDS011;6521;50.498;8.474;2023-07-31T11:14:33;7.15;;;3.28;;
12906;SDS011;6521;50.498;8.474;2023-07-31T11:17:07;8.75;;;4.32;;
12906;SDS011;6521;50.498;8.474;2023-07-31T11:19:37;8.85;;;3.75;;
12906;SDS011;6521;50.498;8.474;2023-07-31T11:22:08;6.18;;;3.40;;
12906;SDS011;6521;50.498;8.474;2023-07-31T11:24:39;6.78;;;3.83;;
12906;SDS011;6521;50.498;8.474;2023-07-31T11:27:09;7.10;;;4.07;;
12906;SDS011;6521;50.498;8.474;2023-07-31T11:29:40;5.65;;;3.33;;
12906;SDS011;6521;50.498;8.474;2023-07-31T11:32:15;8.18;;;3.72;;
12906;SDS011;6521;50.498;8.474;2023-07-31T11:34:51;6.13;;;4.07;;
12906;SDS011;6521;50.498;8.474;2023-07-31T11:37:25;9.88;;;3.60;;
12906;SDS011;6521;50.498;8.474;2023-07-31T11:40:09;7.03;;;3.63;;
12906;SDS011;6521;50.498;8.474;2023-07-31T11:42:40;10.57;;;3.33;;
12906;SDS011;6521;50.498;8.474;2023-07-31T11:45:11;9.15;;;3.75;;
12906;SDS011;6521;50.498;8.474;2023-07-31T11:47:41;8.07;;;3.38;;
12906;SDS011;6521;50.498;8.474;2023-07-31T11:50:11;7.03;;;3.40;;
12906;SDS011;6521;50.498;8.474;2023-07-31T11:52:43;4.38;;;3.33;;
12906;SDS011;6521;50.498;8.474;2023-07-31T11:55:15;5.68;;;2.95;;
12906;SDS011;6521;50.498;8.474;2023-07-31T11:57:46;8.98;;;4.07;;
12906;SDS011;6521;50.498;8.474;2023-07-31T12:00:17;6.70;;;3.75;;
12906;SDS011;6521;50.498;8.474;2023-07-31T12:02:48;6.88;;;3.80;;
12906;SDS011;6521;50.498;8.474;2023-07-31T12:05:21;6.85;;;3.30;;
12906;SDS011;6521;50.498;8.474;2023-07-31T12:07:54;4.85;;;3.20;;
12906;SDS011;6521;50.498;8.474;2023-07-31T12:10:26;5.47;;;3.28;;
12906;SDS011;6521;50.498;8.474;2023-07-31T12:13:03;5.32;;;3.10;;
12906;SDS011;6521;50.498;8.474;2023-07-31T12:15:41;5.05;;;3.55;;
12906;SDS011;6521;50.498;8.474;2023-07-31T12:18:21;5.53;;;3.30;;
12906;SDS011;6521;50.498;8.474;2023-07-31T12:20:57;6.97;;;3.33;;
12906;SDS011;6521;50.498;8.474;2023-07-31T12:23:30;4.88;;;3.17;;
12906;SDS011;6521;50.498;8.474;2023-07-31T12:28:48;4.20;;;3.05;;
12906;SDS011;6521;50.498;8.474;2023-07-31T12:31:21;6.20;;;3.25;;
12906;SDS011;6521;50.498;8.474;2023-07-31T12:33:52;6.93;;;3.05;;
12906;SDS011;6521;50.498;8.474;2023-07-31T12:36:23;7.25;;;3.20;;
12906;SDS011;6521;50.498;8.474;2023-07-31T12:38:54;4.63;;;2.67;;
12906;SDS011;6521;50.498;8.474;2023-07-31T12:41:27;7.55;;;3.20;;
12906;SDS011;6521;50.498;8.474;2023-07-31T12:43:59;4.68;;;3.15;;
12906;SDS011;6521;50.498;8.474;2023-07-31T12:46:29;4.68;;;3.03;;
12906;SDS011;6521;50.498;8.474;2023-07-31T12:49:00;7.78;;;3.00;;
12906;SDS011;6521;50.498;8.474;2023-07-31T12:51:31;4.30;;;3.17;;
12906;SDS011;6521;50.498;8.474;2023-07-31T12:54:01;8.30;;;3.50;;
12906;SDS011;6521;50.498;8.474;2023-07-31T12:56:32;3.65;;;3.03;;
12906;SDS011;6521;50.498;8.474;2023-07-31T12:59:02;5.18;;;3.30;;
12906;SDS011;6521;50.498;8.474;2023-07-31T13:01:33;4.30;;;2.97;;
12906;SDS011;6521;50.498;8.474;2023-07-31T13:04:04;5.85;;;3.28;;
12906;SDS011;6521;50.498;8.474;2023-07-31T13:06:40;10.63;;;3.30;;
12906;SDS011;6521;50.498;8.474;2023-07-31T13:09:11;7.35;;;3.25;;
12906;SDS011;6521;50.498;8.474;2023-07-31T13:11:42;5.75;;;3.05;;
12906;SDS011;6521;50.498;8.474;2023-07-31T13:14:13;4.38;;;2.65;;
12906;SDS011;6521;50.498;8.474;2023-07-31T13:16:44;4.22;;;2.60;;
12906;SDS011;6521;50.498;8.474;2023-07-31T13:19:15;5.15;;;2.70;;
12906;SDS011;6521;50.498;8.474;2023-07-31T13:21:46;4.60;;;2.65;;
12906;SDS011;6521;50.498;8.474;2023-07-31T13:24:18;4.20;;;2.60;;
12906;SDS011;6521;50.498;8.474;2023-07-31T13:26:48;3.47;;;2.72;;
12906;SDS011;6521;50.498;8.474;2023-07-31T13:29:18;5.03;;;2.50;;
12906;SDS011;6521;50.498;8.474;2023-07-31T13:31:49;4.28;;;2.45;;
12906;SDS011;6521;50.498;8.474;2023-07-31T13:34:19;5.45;;;2.38;;
12906;SDS011;6521;50.498;8.474;2023-07-31T13:36:50;4.55;;;2.60;;
12906;SDS011;6521;50.498;8.474;2023-07-31T13:39:20;5.57;;;2.40;;
12906;SDS011;6521;50.498;8.474;2023-07-31T13:41:51;6.85;;;2.75;;
12906;SDS011;6521;50.498;8.474;2023-07-31T13:44:21;6.43;;;2.55;;
12906;SDS011;6521;50.498;8.474;2023-07-31T13:46:52;3.33;;;2.30;;
12906;SDS011;6521;50.498;8.474;2023-07-31T13:49:22;5.60;;;2.80;;
12906;SDS011;6521;50.498;8.474;2023-07-31T13:51:53;2.70;;;2.50;;
12906;SDS011;6521;50.498;8.474;2023-07-31T13:54:23;5.32;;;2.80;;
12906;SDS011;6521;50.498;8.474;2023-07-31T13:56:55;7.63;;;3.05;;
12906;SDS011;6521;50.498;8.474;2023-07-31T13:59:25;4.50;;;3.13;;
12906;SDS011;6521;50.498;8.474;2023-07-31T14:01:56;5.18;;;3.20;;
12906;SDS011;6521;50.498;8.474;2023-07-31T14:04:27;3.80;;;2.70;;
12906;SDS011;6521;50.498;8.474;2023-07-31T14:06:58;5.03;;;3.15;;
12906;SDS011;6521;50.498;8.474;2023-07-31T14:09:29;5.25;;;3.47;;
12906;SDS011;6521;50.498;8.474;2023-07-31T14:12:00;5.80;;;2.88;;
12906;SDS011;6521;50.498;8.474;2023-07-31T14:14:31;3.65;;;2.80;;
12906;SDS011;6521;50.498;8.474;2023-07-31T14:17:04;4.05;;;3.00;;
12906;SDS011;6521;50.498;8.474;2023-07-31T14:19:35;3.50;;;2.70;;
12906;SDS011;6521;50.498;8.474;2023-07-31T14:22:06;6.25;;;3.05;;
12906;SDS011;6521;50.498;8.474;2023-07-31T14:24:37;2.85;;;2.50;;
12906;SDS011;6521;50.498;8.474;2023-07-31T14:27:08;3.78;;;3.22;;
12906;SDS011;6521;50.498;8.474;2023-07-31T14:29:39;3.88;;;2.75;;
12906;SDS011;6521;50.498;8.474;2023-07-31T14:32:10;6.05;;;2.67;;
12906;SDS011;6521;50.498;8.474;2023-07-31T14:34:40;2.90;;;2.30;;
12906;SDS011;6521;50.498;8.474;2023-07-31T14:37:11;5.05;;;2.40;;
12906;SDS011;6521;50.498;8.474;2023-07-31T14:39:43;3.90;;;2.63;;
12906;SDS011;6521;50.498;8.474;2023-07-31T14:42:16;2.55;;;2.28;;
12906;SDS011;6521;50.498;8.474;2023-07-31T14:44:48;7.95;;;2.20;;
12906;SDS011;6521;50.498;8.474;2023-07-31T14:47:19;5.32;;;2.45;;
12906;SDS011;6521;50.498;8.474;2023-07-31T14:49:50;5.65;;;2.80;;
12906;SDS011;6521;50.498;8.474;2023-07-31T14:52:21;7.60;;;3.00;;
12906;SDS011;6521;50.498;8.474;2023-07-31T14:54:52;3.53;;;1.98;;
12906;SDS011;6521;50.498;8.474;2023-07-31T14:57:23;3.08;;;2.00;;
12906;SDS011;6521;50.498;8.474;2023-07-31T14:59:53;3.55;;;1.90;;
12906;SDS011;6521;50.498;8.474;2023-07-31T15:02:25;4.93;;;1.85;;
12906;SDS011;6521;50.498;8.474;2023-07-31T15:04:55;1.95;;;1.70;;
12906;SDS011;6521;50.498;8.474;2023-07-31T15:07:26;2.45;;;1.98;;
12906;SDS011;6521;50.498;8.474;2023-07-31T15:09:56;3.97;;;1.80;;
12906;SDS011;6521;50.498;8.474;2023-07-31T15:12:27;2.65;;;1.73;;
12906;SDS011;6521;50.498;8.474;2023-07-31T15:14:58;5.07;;;1.77;;
12906;SDS011;6521;50.498;8.474;2023-07-31T15:17:28;2.13;;;1.60;;
12906;SDS011;6521;50.498;8.474;2023-07-31T15:20:01;1.75;;;1.60;;
12906;SDS011;6521;50.498;8.474;2023-07-31T15:22:35;2.60;;;1.40;;
12906;SDS011;6521;50.498;8.474;2023-07-31T15:25:05;3.58;;;1.65;;
12906;SDS011;6521;50.498;8.474;2023-07-31T15:27:37;1.95;;;1.65;;
12906;SDS011;6521;50.498;8.474;2023-07-31T15:30:07;5.13;;;1.85;;
12906;SDS011;6521;50.498;8.474;2023-07-31T15:32:38;2.50;;;1.70;;
12906;SDS011;6521;50.498;8.474;2023-07-31T15:35:09;3.70;;;1.67;;
12906;SDS011;6521;50.498;8.474;2023-07-31T15:37:39;4.75;;;1.85;;